Time;durP1;ratioP1;P1;durP2;ratioP2;P2;SDS_P1;SDS_P2;PMS_P1;PMS_P2;Temp;Humidity;BMP_temperature;BMP_pressure;BME280_temperature;BME280_humidity;BME280_pressure;Samples;Min_cycle;Max_cycle;Signal;HPM_P1;HPM_P2
2021/11/23 00:00:56;;;;;;;4.55;3.05;;;;;;;4.85;69.64;100972.74;1669463;86;20935;-75
2021/11/23 00:03:23;;;;;;;3.90;2.70;;;;;;;4.83;69.54;100975.83;1669378;86;21576;-74
2021/11/23 00:05:50;;;;;;;3.52;3.10;;;;;;;4.81;69.37;100967.69;1669382;86;20897;-74
2021/11/23 00:08:17;;;;;;;4.42;2.90;;;;;;;4.76;69.30;100969.13;1669659;86;21119;-74
2021/11/23 00:10:45;;;;;;;4.75;3.45;;;;;;;4.73;69.09;100979.14;1669366;86;20944;-74
2021/11/23 00:13:13;;;;;;;4.40;3.72;;;;;;;4.71;68.95;100980.96;1669555;86;20857;-74
2021/11/23 00:15:41;;;;;;;4.70;3.62;;;;;;;4.70;68.91;100983.14;1670067;86;20877;-74
2021/11/23 00:18:11;;;;;;;4.20;2.92;;;;;;;4.70;68.71;100986.19;1669480;86;20932;-74
2021/11/23 00:20:40;;;;;;;4.53;3.50;;;;;;;4.69;68.53;100989.25;1669637;86;21131;-75
2021/11/23 00:23:07;;;;;;;6.85;3.75;;;;;;;4.68;68.41;100989.28;1670975;84;20925;-75
2021/11/23 00:25:35;;;;;;;4.20;3.60;;;;;;;4.67;68.05;100990.16;1697501;84;20887;-75
2021/11/23 00:28:02;;;;;;;6.05;3.05;;;;;;;4.63;68.01;100982.92;1697889;84;20927;-75
2021/11/23 00:30:32;;;;;;;5.25;3.20;;;;;;;4.61;68.08;100979.97;1697473;83;20911;-74
2021/11/23 00:32:59;;;;;;;3.35;2.85;;;;;;;4.58;68.08;100977.02;1697577;83;23074;-74
2021/11/23 00:35:27;;;;;;;3.65;3.10;;;;;;;4.53;67.93;100977.58;1697512;84;20942;-74
2021/11/23 00:37:55;;;;;;;4.22;3.77;;;;;;;4.46;67.99;100983.86;1697572;83;21065;-75
2021/11/23 00:40:22;;;;;;;3.60;2.85;;;;;;;4.40;68.17;100982.27;1697625;83;20855;-74
2021/11/23 00:42:49;;;;;;;3.65;2.22;;;;;;;4.38;68.23;100983.22;1697599;84;20918;-76
2021/11/23 00:45:17;;;;;;;3.45;2.60;;;;;;;4.35;68.30;100986.30;1697511;83;21526;-75
2021/11/23 00:47:44;;;;;;;3.92;3.30;;;;;;;4.35;68.29;100977.21;1697672;84;20973;-76
2021/11/23 00:50:11;;;;;;;3.17;2.72;;;;;;;4.34;68.28;100985.91;1697524;84;20891;-76
2021/11/23 00:52:38;;;;;;;4.62;2.85;;;;;;;4.36;68.31;100980.69;1697948;83;20915;-76
2021/11/23 00:55:06;;;;;;;3.35;2.80;;;;;;;4.35;68.30;100985.45;1697657;83;20987;-75
2021/11/23 00:57:33;;;;;;;5.28;3.70;;;;;;;4.30;68.18;100982.99;1697517;84;21404;-76
2021/11/23 01:00:00;;;;;;;3.75;2.80;;;;;;;4.28;68.15;100982.19;1697671;84;20939;-75
2021/11/23 01:02:28;;;;;;;4.05;2.80;;;;;;;4.27;68.15;100993.90;1697499;84;21527;-76
2021/11/23 01:04:55;;;;;;;3.98;2.62;;;;;;;4.24;68.16;100979.72;1640032;87;21014;-75
2021/11/23 01:07:22;;;;;;;3.05;2.00;;;;;;;4.17;68.18;100982.93;1640156;86;20887;-75
2021/11/23 01:09:50;;;;;;;6.83;2.80;;;;;;;4.12;68.18;100982.22;1640189;87;21559;-74
2021/11/23 01:12:16;;;;;;;2.87;2.42;;;;;;;4.09;68.35;100979.27;1640027;86;20941;-75
2021/11/23 01:14:43;;;;;;;3.90;2.17;;;;;;;4.03;68.46;100972.94;1640436;87;20950;-76
2021/11/23 01:17:11;;;;;;;3.33;3.00;;;;;;;4.00;68.58;100979.94;1640120;86;21040;-76
2021/11/23 01:19:38;;;;;;;2.95;2.55;;;;;;;3.95;68.74;100980.06;1640473;86;20934;-76
2021/11/23 01:22:05;;;;;;;3.80;2.33;;;;;;;3.94;68.80;100984.86;1640101;86;21143;-75
2021/11/23 01:24:32;;;;;;;2.35;2.15;;;;;;;3.92;68.79;100983.59;1632733;87;20891;-76
2021/11/23 01:26:59;;;;;;;2.75;2.55;;;;;;;3.91;68.88;100983.20;1689953;85;20916;-76
2021/11/23 01:29:27;;;;;;;3.10;2.45;;;;;;;3.91;68.91;100987.52;1690012;85;21467;-75
2021/11/23 01:31:54;;;;;;;4.75;2.52;;;;;;;3.90;68.93;100981.94;1690338;85;20998;-77
2021/11/23 01:34:21;;;;;;;2.65;2.22;;;;;;;3.89;68.94;100979.80;1690532;85;21507;-76
2021/11/23 01:36:49;;;;;;;2.67;2.33;;;;;;;3.86;68.99;100985.50;1689960;85;20895;-76
2021/11/23 01:39:17;;;;;;;4.20;2.70;;;;;;;3.79;69.08;100982.22;1690270;83;20938;-76
2021/11/23 01:41:43;;;;;;;3.30;2.52;;;;;;;3.76;69.13;100980.13;1690050;83;21559;-75
2021/11/23 01:44:10;;;;;;;3.17;2.50;;;;;;;3.72;69.22;100979.38;1690446;85;20911;-76
2021/11/23 01:46:39;;;;;;;2.70;2.47;;;;;;;3.72;69.32;100978.09;1690138;85;21188;-78
2021/11/23 01:49:06;;;;;;;3.87;2.55;;;;;;;3.73;69.33;100978.48;1690219;83;21033;-76
2021/11/23 01:51:34;;;;;;;2.08;1.92;;;;;;;3.76;69.41;100973.66;1690074;85;21425;-76
2021/11/23 01:54:01;;;;;;;4.35;2.65;;;;;;;3.79;69.47;100977.48;1690547;83;20923;-76
2021/11/23 01:56:28;;;;;;;3.72;2.77;;;;;;;3.79;69.53;100980.92;1659800;85;21460;-76
2021/11/23 01:58:56;;;;;;;2.65;2.05;;;;;;;3.79;69.44;100978.33;1684789;85;21508;-75
2021/11/23 02:01:23;;;;;;;5.40;2.92;;;;;;;3.79;69.33;100977.48;1684976;83;20888;-75
2021/11/23 02:03:51;;;;;;;4.85;2.70;;;;;;;3.76;69.42;100980.13;1684740;85;21153;-73
2021/11/23 02:06:18;;;;;;;4.12;2.95;;;;;;;3.75;69.45;100979.30;1689952;83;21377;-75
2021/11/23 02:08:45;;;;;;;3.22;2.80;;;;;;;3.74;69.42;100981.49;1690302;85;20919;-75
2021/11/23 02:11:12;;;;;;;2.87;2.58;;;;;;;3.72;69.36;100983.27;1690073;83;21952;-74
2021/11/23 02:13:41;;;;;;;2.87;2.58;;;;;;;3.70;69.35;100994.97;1690181;85;20923;-75
2021/11/23 02:16:07;;;;;;;6.87;2.62;;;;;;;3.69;69.47;100992.41;1690239;85;20938;-75
2021/11/23 02:18:36;;;;;;;3.45;2.37;;;;;;;3.68;69.51;101001.94;1690017;85;21532;-75
2021/11/23 02:21:03;;;;;;;4.42;2.58;;;;;;;3.67;69.62;100989.87;1690046;85;21229;-74
2021/11/23 02:23:30;;;;;;;4.58;2.55;;;;;;;3.67;69.62;100992.47;1690188;85;21064;-74
2021/11/23 02:25:57;;;;;;;4.62;2.92;;;;;;;3.70;69.70;100992.38;1693377;84;21598;-74
2021/11/23 02:28:24;;;;;;;3.08;2.42;;;;;;;3.71;69.67;100988.91;1693646;84;21000;-76
2021/11/23 02:30:54;;;;;;;2.77;2.40;;;;;;;3.73;69.63;100990.15;1693640;84;20897;-75
2021/11/23 02:33:24;;;;;;;3.45;2.75;;;;;;;3.69;69.48;100989.39;1693979;84;20897;-75
2021/11/23 02:35:53;;;;;;;5.60;3.08;;;;;;;3.67;69.59;100998.11;1693709;84;21143;-74
2021/11/23 02:38:22;;;;;;;3.92;2.67;;;;;;;3.67;69.64;101000.70;1693803;84;20898;-75
2021/11/23 02:40:49;;;;;;;3.55;2.60;;;;;;;3.65;69.62;100990.81;1693911;84;21411;-74
2021/11/23 02:43:16;;;;;;;2.87;2.50;;;;;;;3.63;69.58;100996.48;1693582;84;20937;-75
2021/11/23 02:45:43;;;;;;;4.95;2.92;;;;;;;3.59;69.66;100992.26;1693939;84;20944;-76
2021/11/23 02:48:11;;;;;;;4.55;2.92;;;;;;;3.55;69.91;100994.06;1693667;84;21055;-74
2021/11/23 02:50:39;;;;;;;2.87;2.62;;;;;;;3.53;70.12;100995.42;1693596;84;21097;-74
2021/11/23 02:53:05;;;;;;;4.50;2.70;;;;;;;3.51;70.29;100999.79;1693710;84;20968;-74
2021/11/23 02:55:36;;;;;;;4.75;3.12;;;;;;;3.51;70.39;101000.20;1693563;84;21485;-73
2021/11/23 02:58:05;;;;;;;8.58;4.53;;;;;;;3.51;70.49;100997.61;1693579;84;20905;-74
2021/11/23 03:00:32;;;;;;;4.55;3.00;;;;;;;3.54;70.51;101005.34;1693651;84;21152;-74
2021/11/23 03:02:59;;;;;;;6.95;3.37;;;;;;;3.54;70.56;101011.82;1693991;84;20945;-74
2021/11/23 03:05:27;;;;;;;4.40;3.52;;;;;;;3.55;70.54;101010.91;1693737;84;20961;-74
2021/11/23 03:07:55;;;;;;;4.60;3.30;;;;;;;3.53;70.52;101008.38;1693568;84;20957;-74
2021/11/23 03:10:23;;;;;;;4.58;3.05;;;;;;;3.53;70.52;101012.69;1693762;84;20893;-73
2021/11/23 03:12:51;;;;;;;4.65;3.67;;;;;;;3.50;70.48;101015.38;1693633;84;21151;-75
2021/11/23 03:15:20;;;;;;;4.53;3.20;;;;;;;3.49;70.41;101012.36;1693548;84;20940;-74
2021/11/23 03:17:48;;;;;;;3.10;2.42;;;;;;;3.47;70.30;101019.34;1693526;84;20905;-74
2021/11/23 03:20:18;;;;;;;5.25;3.02;;;;;;;3.43;70.27;101027.63;1693562;84;20976;-75
2021/11/23 03:22:47;;;;;;;4.85;3.15;;;;;;;3.39;70.30;101034.22;1693930;84;21023;-74
2021/11/23 03:25:15;;;;;;;3.25;2.95;;;;;;;3.33;70.37;101041.69;1691704;83;22435;-74
2021/11/23 03:27:42;;;;;;;4.58;3.08;;;;;;;3.29;70.50;101042.64;1690202;85;20935;-75
2021/11/23 03:30:12;;;;;;;4.35;3.65;;;;;;;3.24;70.50;101041.45;1690175;85;20903;-74
2021/11/23 03:32:40;;;;;;;5.15;3.65;;;;;;;3.18;70.57;101042.91;1690046;83;20883;-75
2021/11/23 03:35:08;;;;;;;4.55;3.08;;;;;;;3.14;70.64;101041.72;1690061;85;20983;-75
2021/11/23 03:37:36;;;;;;;3.95;3.15;;;;;;;3.09;70.56;101043.97;1690138;83;21564;-74
2021/11/23 03:40:06;;;;;;;4.45;3.62;;;;;;;3.05;70.63;101047.50;1690052;83;20970;-74
2021/11/23 03:42:32;;;;;;;5.35;3.42;;;;;;;3.02;70.48;101045.41;1690277;85;20882;-75
2021/11/23 03:44:59;;;;;;;3.77;2.95;;;;;;;2.97;70.46;101045.97;1690050;83;20887;-73
2021/11/23 03:47:31;;;;;;;4.20;3.00;;;;;;;2.94;70.48;101044.75;1690272;85;20951;-75
2021/11/23 03:50:00;;;;;;;4.20;3.45;;;;;;;2.92;70.32;101047.81;1690058;83;21342;-73
2021/11/23 03:52:27;;;;;;;3.42;2.60;;;;;;;2.89;70.26;101051.29;1689998;85;20943;-74
2021/11/23 03:54:55;;;;;;;5.28;3.00;;;;;;;2.87;70.23;101038.84;1690142;85;20896;-74
2021/11/23 03:57:22;;;;;;;3.27;2.72;;;;;;;2.85;70.00;101040.16;1690179;83;20948;-75
2021/11/23 03:59:49;;;;;;;4.40;3.40;;;;;;;2.83;69.99;101037.20;1690150;85;21384;-76
2021/11/23 04:02:21;;;;;;;6.12;3.00;;;;;;;2.85;70.01;101044.05;1690216;83;21200;-76
2021/11/23 04:04:48;;;;;;;3.33;2.83;;;;;;;2.85;69.87;101048.38;1685034;83;21492;-76
2021/11/23 04:07:15;;;;;;;5.65;3.35;;;;;;;2.86;69.80;101044.89;1684922;83;21010;-75
2021/11/23 04:09:42;;;;;;;4.55;2.95;;;;;;;2.85;69.54;101043.20;1689907;85;20913;-76
2021/11/23 04:12:11;;;;;;;4.85;2.85;;;;;;;2.84;69.58;101050.55;1690101;83;21034;-75
2021/11/23 04:14:38;;;;;;;5.67;3.00;;;;;;;2.81;69.41;101045.45;1690057;83;21557;-74
2021/11/23 04:17:06;;;;;;;4.58;2.83;;;;;;;2.80;69.33;101039.42;1690023;85;20943;-74
2021/11/23 04:19:33;;;;;;;4.70;2.98;;;;;;;2.81;69.24;101044.99;1690414;85;21570;-74
2021/11/23 04:22:00;;;;;;;2.60;2.37;;;;;;;2.83;69.29;101045.81;1690099;85;20903;-75
2021/11/23 04:24:27;;;;;;;3.20;2.72;;;;;;;2.86;69.01;101050.08;1690756;83;20911;-74
2021/11/23 04:26:54;;;;;;;3.52;2.83;;;;;;;2.80;68.91;101057.97;1693433;84;21572;-75
2021/11/23 04:29:22;;;;;;;6.25;2.98;;;;;;;2.78;69.11;101063.20;1693529;84;20941;-74
2021/11/23 04:31:49;;;;;;;3.80;3.27;;;;;;;2.76;69.20;101053.73;1693453;84;20949;-75
2021/11/23 04:34:16;;;;;;;4.05;2.98;;;;;;;2.75;69.21;101059.36;1693400;83;21501;-75
2021/11/23 04:36:43;;;;;;;3.85;3.00;;;;;;;2.75;69.19;101059.80;1693505;84;20904;-74
2021/11/23 04:39:11;;;;;;;4.17;3.47;;;;;;;2.72;69.16;101055.55;1693839;84;21519;-74
2021/11/23 04:41:40;;;;;;;6.42;3.10;;;;;;;2.70;69.39;101054.27;1693544;84;21090;-75
2021/11/23 04:44:07;;;;;;;3.85;2.80;;;;;;;2.71;69.47;101057.70;1693488;84;20944;-75
2021/11/23 04:46:34;;;;;;;6.40;3.45;;;;;;;2.71;69.43;101062.89;1693320;84;20984;-75
2021/11/23 04:49:01;;;;;;;3.85;3.10;;;;;;;2.72;69.47;101065.06;1693492;84;20976;-75
2021/11/23 04:51:28;;;;;;;7.83;5.15;;;;;;;2.70;69.54;101061.20;1693541;84;21156;-75
2021/11/23 04:53:55;;;;;;;4.55;3.50;;;;;;;2.69;69.55;101059.48;1693435;84;20905;-75
2021/11/23 04:56:22;;;;;;;6.12;3.77;;;;;;;2.68;69.56;101068.14;1693604;84;21055;-75
2021/11/23 04:58:49;;;;;;;4.55;3.80;;;;;;;2.63;69.71;101068.23;1693641;84;20912;-75
2021/11/23 05:01:16;;;;;;;5.72;3.55;;;;;;;2.63;69.80;101072.13;1693582;84;20909;-75
2021/11/23 05:03:43;;;;;;;4.40;3.92;;;;;;;2.62;69.71;101070.84;1693583;84;21045;-76
2021/11/23 05:06:10;;;;;;;5.42;4.37;;;;;;;2.60;69.77;101073.91;1693474;84;20865;-76
2021/11/23 05:08:39;;;;;;;4.60;3.30;;;;;;;2.62;69.86;101069.55;1693566;84;20896;-75
2021/11/23 05:11:08;;;;;;;4.12;3.37;;;;;;;2.62;69.97;101070.43;1693625;84;21075;-75
2021/11/23 05:13:38;;;;;;;6.72;3.70;;;;;;;2.62;69.85;101073.02;1693767;84;21073;-76
2021/11/23 05:16:06;;;;;;;4.33;3.92;;;;;;;2.63;69.91;101086.81;1693400;84;21132;-75
2021/11/23 05:18:34;;;;;;;4.97;3.70;;;;;;;2.65;70.06;101091.52;1693619;84;21124;-75
2021/11/23 05:21:01;;;;;;;4.85;3.72;;;;;;;2.70;70.08;101094.86;1693520;84;20878;-77
2021/11/23 05:23:28;;;;;;;5.72;2.83;;;;;;;2.75;70.05;101104.67;1693619;84;21447;-82
2021/11/23 05:25:56;;;;;;;4.53;3.77;;;;;;;2.77;69.95;101095.14;1691472;83;20899;-83
2021/11/23 05:28:24;;;;;;;5.30;3.67;;;;;;;2.79;70.01;101091.23;1690172;83;21964;-84
2021/11/23 05:30:51;;;;;;;5.17;3.85;;;;;;;2.80;69.95;101097.69;1690236;83;20894;-82
2021/11/23 05:33:19;;;;;;;5.25;4.22;;;;;;;2.81;69.99;101109.73;1690395;83;20947;-84
2021/11/23 05:35:49;;;;;;;5.15;3.92;;;;;;;2.82;69.97;101106.25;1690019;85;20899;-83
2021/11/23 05:38:20;;;;;;;4.92;3.98;;;;;;;2.84;70.06;101116.59;1690121;83;20943;-83
2021/11/23 05:40:47;;;;;;;5.22;4.00;;;;;;;2.87;70.11;101113.52;1690225;85;21425;-81
2021/11/23 05:43:15;;;;;;;7.00;4.00;;;;;;;2.89;70.05;101118.22;1690003;85;21048;-83
2021/11/23 05:45:42;;;;;;;5.72;4.33;;;;;;;2.90;69.97;101123.80;1690094;83;21401;-84
2021/11/23 05:48:10;;;;;;;7.47;4.42;;;;;;;2.93;70.01;101124.17;1690252;83;20939;-82
2021/11/23 05:50:37;;;;;;;4.95;4.00;;;;;;;2.94;69.95;101127.19;1690133;83;20962;-83
2021/11/23 05:53:04;;;;;;;7.72;3.80;;;;;;;2.96;69.88;101129.31;1690221;85;21756;-82
2021/11/23 05:55:31;;;;;;;4.75;3.90;;;;;;;3.00;69.92;101133.55;1690050;83;20943;-82
2021/11/23 05:57:58;;;;;;;8.68;4.67;;;;;;;3.02;69.85;101133.05;1690463;85;20936;-83
2021/11/23 06:00:24;;;;;;;5.45;4.92;;;;;;;3.01;69.88;101127.47;1690020;85;21041;-79
2021/11/23 06:02:51;;;;;;;9.75;4.70;;;;;;;3.01;69.97;101124.03;1690610;83;21381;-82
2021/11/23 06:05:19;;;;;;;7.65;5.40;;;;;;;3.03;69.96;101124.86;1690918;85;21304;-83
2021/11/23 06:07:46;;;;;;;7.55;5.75;;;;;;;3.02;70.07;101131.75;1690844;85;20927;-83
2021/11/23 06:10:13;;;;;;;14.00;5.05;;;;;;;3.07;70.11;101132.53;1691563;83;20855;-82
2021/11/23 06:12:42;;;;;;;11.43;6.42;;;;;;;3.12;70.05;101136.33;1692302;85;20946;-81
2021/11/23 06:15:10;;;;;;;8.68;6.70;;;;;;;3.17;70.01;101138.81;1690325;85;20900;-83
2021/11/23 06:17:38;;;;;;;10.08;6.00;;;;;;;3.20;69.90;101131.84;1684907;83;21156;-82
2021/11/23 06:22:39;;;;;;;9.45;6.95;;;;;;;3.29;69.89;101133.36;1798863;79;22636;-81
2021/11/23 06:25:08;;;;;;;8.28;6.20;;;;;;;3.26;69.71;101132.14;1758795;80;20991;-80
2021/11/23 06:27:36;;;;;;;7.83;6.92;;;;;;;3.26;69.80;101136.02;1758905;80;21131;-81
2021/11/23 06:30:05;;;;;;;8.53;6.10;;;;;;;3.28;69.75;101136.84;1760493;80;20841;-82
2021/11/23 06:32:36;;;;;;;7.33;6.25;;;;;;;3.30;69.78;101142.86;1759487;81;20881;-81
2021/11/23 06:35:04;;;;;;;12.25;6.45;;;;;;;3.33;69.71;101145.37;1758616;81;20952;-82
2021/11/23 06:37:31;;;;;;;11.28;6.53;;;;;;;3.35;69.61;101145.34;1753669;81;20861;-79
2021/11/23 06:39:58;;;;;;;8.75;6.50;;;;;;;3.35;69.56;101145.34;1750351;80;21391;-80
2021/11/23 06:42:25;;;;;;;9.45;5.65;;;;;;;3.38;69.53;101150.45;1750034;80;21433;-82
2021/11/23 06:44:53;;;;;;;9.63;6.45;;;;;;;3.39;69.63;101147.83;1750131;81;21417;-83
2021/11/23 06:47:19;;;;;;;8.23;6.50;;;;;;;3.40;69.70;101146.09;1750113;81;21378;-81
2021/11/23 06:49:49;;;;;;;9.95;6.58;;;;;;;3.43;69.46;101147.34;1750137;82;20880;-80
2021/11/23 06:52:15;;;;;;;12.50;7.22;;;;;;;3.37;69.64;101142.28;1750181;80;21141;-80
2021/11/23 06:54:42;;;;;;;12.58;7.20;;;;;;;3.37;69.63;101147.46;1750013;82;20960;-77
2021/11/23 06:57:09;;;;;;;10.15;7.67;;;;;;;3.38;69.82;101154.34;1750086;82;21339;-76
2021/11/23 06:59:38;;;;;;;10.88;6.55;;;;;;;3.41;69.72;101153.84;1749976;81;20888;-75
2021/11/23 07:02:05;;;;;;;10.18;7.72;;;;;;;3.40;69.53;101152.16;1750103;80;20889;-74
2021/11/23 07:04:32;;;;;;;10.25;6.55;;;;;;;3.39;69.61;101151.72;1750292;80;21239;-75
2021/11/23 07:07:00;;;;;;;6.35;5.75;;;;;;;3.40;69.62;101153.86;1749975;82;20896;-77
2021/11/23 07:09:28;;;;;;;8.00;6.97;;;;;;;3.40;69.66;101161.23;1750120;80;20865;-77
2021/11/23 07:11:56;;;;;;;8.78;6.55;;;;;;;3.41;69.81;101156.88;1750082;80;21044;-75
2021/11/23 07:14:23;;;;;;;9.63;6.50;;;;;;;3.46;69.69;101153.29;1749995;82;20924;-76
2021/11/23 07:16:51;;;;;;;8.60;5.53;;;;;;;3.52;69.71;101159.64;1750011;82;21157;-76
2021/11/23 07:19:18;;;;;;;7.60;6.15;;;;;;;3.58;69.72;101167.75;1750035;82;20881;-76
2021/11/23 07:21:45;;;;;;;8.85;5.50;;;;;;;3.66;69.66;101173.59;1743057;81;20917;-79
2021/11/23 07:24:12;;;;;;;7.75;5.87;;;;;;;3.73;69.53;101166.52;1736926;82;21012;-79
2021/11/23 07:26:39;;;;;;;9.20;5.87;;;;;;;3.83;69.29;101164.59;1736840;82;20889;-79
2021/11/23 07:29:07;;;;;;;9.05;6.05;;;;;;;3.90;69.06;101163.10;1737065;82;21190;-78
2021/11/23 07:31:35;;;;;;;10.65;6.28;;;;;;;4.01;68.66;101167.20;1736789;82;20936;-77
2021/11/23 07:34:02;;;;;;;6.55;5.62;;;;;;;4.10;68.47;101168.27;1736288;81;21108;-78
2021/11/23 07:36:29;;;;;;;6.50;5.20;;;;;;;4.19;67.96;101171.93;1736191;82;21387;-77
2021/11/23 07:38:56;;;;;;;9.28;4.97;;;;;;;4.23;67.69;101172.72;1736518;82;21359;-78
2021/11/23 07:41:23;;;;;;;7.00;5.65;;;;;;;4.23;67.54;101163.18;1736153;82;21586;-78
2021/11/23 07:43:50;;;;;;;6.70;5.03;;;;;;;4.24;67.54;101168.77;1736333;82;20885;-78
2021/11/23 07:46:17;;;;;;;8.58;5.58;;;;;;;4.27;67.41;101182.98;1736262;82;20885;-77
2021/11/23 07:48:45;;;;;;;8.18;5.80;;;;;;;4.28;67.47;101177.34;1736280;81;20973;-77
2021/11/23 07:51:13;;;;;;;7.50;4.78;;;;;;;4.33;67.44;101175.47;1736453;81;20877;-78
2021/11/23 07:53:40;;;;;;;8.73;5.67;;;;;;;4.40;67.52;101180.91;1736494;82;21109;-76
2021/11/23 07:56:06;;;;;;;8.18;6.08;;;;;;;4.50;67.46;101168.11;1736413;81;21498;-75
2021/11/23 07:58:33;;;;;;;6.97;5.80;;;;;;;4.63;67.04;101173.00;1737420;81;20909;-81
2021/11/23 08:01:00;;;;;;;7.95;7.08;;;;;;;4.71;66.69;101174.92;1736224;82;20897;-72
2021/11/23 08:03:33;;;;;;;7.03;5.40;;;;;;;4.77;66.35;101179.97;1736268;81;21021;-74
2021/11/23 08:06:03;;;;;;;8.40;5.60;;;;;;;4.82;65.94;101178.54;1734162;82;21180;-73
2021/11/23 08:08:30;;;;;;;9.00;5.87;;;;;;;4.83;65.75;101177.20;1736590;81;21470;-74
2021/11/23 08:10:59;;;;;;;7.22;5.78;;;;;;;4.86;65.59;101174.52;1736286;82;21011;-73
2021/11/23 08:13:26;;;;;;;7.65;5.47;;;;;;;4.91;65.24;101166.59;1736251;82;20893;-74
2021/11/23 08:15:53;;;;;;;6.80;5.15;;;;;;;4.93;64.76;101167.40;1736555;82;20980;-75
2021/11/23 08:18:20;;;;;;;7.70;5.37;;;;;;;4.97;64.58;101171.17;1736234;82;21530;-75
2021/11/23 08:20:47;;;;;;;6.08;5.47;;;;;;;5.02;64.24;101172.80;1736680;81;20888;-76
2021/11/23 08:23:14;;;;;;;7.42;6.33;;;;;;;5.02;64.11;101165.00;1741783;82;20967;-76
2021/11/23 08:25:41;;;;;;;9.08;6.53;;;;;;;5.05;64.37;101164.92;1742156;81;21011;-77
2021/11/23 08:28:08;;;;;;;10.13;5.80;;;;;;;5.10;64.20;101160.44;1742188;81;20892;-76
2021/11/23 08:30:35;;;;;;;6.10;5.50;;;;;;;5.17;64.28;101152.86;1742019;82;21124;-75
2021/11/23 08:33:02;;;;;;;7.67;5.45;;;;;;;5.25;63.88;101144.40;1741838;81;21087;-75
2021/11/23 08:35:29;;;;;;;10.40;6.30;;;;;;;5.32;63.91;101151.11;1741799;82;20966;-75
2021/11/23 08:37:56;;;;;;;12.78;7.12;;;;;;;5.39;63.55;101147.42;1741848;81;20916;-76
2021/11/23 08:40:23;;;;;;;7.97;6.10;;;;;;;5.46;63.45;101149.85;1742025;81;20959;-75
2021/11/23 08:42:51;;;;;;;9.85;5.62;;;;;;;5.49;62.94;101160.15;1741645;82;21113;-76
2021/11/23 08:45:18;;;;;;;7.80;5.85;;;;;;;5.51;62.93;101159.66;1741986;81;20888;-76
2021/11/23 08:47:47;;;;;;;6.80;5.25;;;;;;;5.53;62.74;101153.50;1741873;82;21033;-75
2021/11/23 08:50:14;;;;;;;9.33;6.00;;;;;;;5.51;62.27;101157.06;1742118;81;20996;-75
2021/11/23 08:52:42;;;;;;;8.23;5.92;;;;;;;5.46;62.21;101160.25;1741909;81;21002;-76
2021/11/23 08:55:09;;;;;;;10.75;7.25;;;;;;;5.48;62.24;101158.00;1742246;81;21244;-75
2021/11/23 08:57:36;;;;;;;9.98;6.42;;;;;;;5.48;62.06;101164.97;1741769;81;20979;-75
2021/11/23 09:00:16;;;;;;;6.10;5.50;;;;;;;5.49;62.07;101162.75;1741752;81;20963;-75
2021/11/23 09:02:47;;;;;;;4.97;4.37;;;;;;;5.50;61.63;101151.47;1742001;81;20912;-74
2021/11/23 09:05:14;;;;;;;5.87;4.00;;;;;;;5.48;60.85;101149.36;1742248;81;21460;-75
2021/11/23 09:07:42;;;;;;;4.58;3.95;;;;;;;5.45;60.11;101152.91;1741798;81;21598;-76
2021/11/23 09:10:18;;;;;;;4.95;3.47;;;;;;;5.41;60.10;101155.20;1742001;81;21346;-76
2021/11/23 09:12:42;;;;;;;5.60;3.05;;;;;;;5.39;60.02;101164.79;1741240;81;21559;-75
2021/11/23 09:15:09;;;;;;;3.80;3.27;;;;;;;5.43;59.40;101166.41;1741914;81;20931;-76
2021/11/23 09:17:36;;;;;;;4.92;3.60;;;;;;;5.44;59.07;101163.35;1741834;81;21505;-74
2021/11/23 09:20:05;;;;;;;5.12;4.00;;;;;;;5.40;59.42;101168.66;1742147;81;21904;-75
2021/11/23 09:22:32;;;;;;;5.70;4.05;;;;;;;5.41;59.15;101166.90;1746495;81;21545;-77
2021/11/23 09:24:59;;;;;;;5.37;4.17;;;;;;;5.37;59.64;101171.78;1750147;82;20892;-75
2021/11/23 09:27:26;;;;;;;5.92;4.08;;;;;;;5.35;59.81;101181.38;1750226;82;20968;-75
2021/11/23 09:29:54;;;;;;;4.53;4.12;;;;;;;5.37;60.22;101179.59;1750293;80;21027;-75
2021/11/23 09:32:23;;;;;;;6.92;4.53;;;;;;;5.38;60.31;101183.45;1750364;80;20964;-75
2021/11/23 09:34:50;;;;;;;5.87;3.90;;;;;;;5.43;60.28;101179.87;1750013;80;20916;-76
2021/11/23 09:37:17;;;;;;;5.42;4.58;;;;;;;5.45;60.60;101178.92;1750591;82;20932;-76
2021/11/23 09:39:47;;;;;;;9.55;5.03;;;;;;;5.49;60.74;101184.86;1723657;82;20920;-77
2021/11/23 09:42:14;;;;;;;6.45;4.72;;;;;;;5.48;60.75;101180.12;1750313;82;20947;-74
2021/11/23 09:44:43;;;;;;;7.37;5.40;;;;;;;5.46;60.86;101177.16;1750201;82;21077;-75
2021/11/23 09:47:10;;;;;;;7.37;4.92;;;;;;;5.50;61.00;101177.48;1750143;82;20838;-77
2021/11/23 09:49:37;;;;;;;8.88;5.08;;;;;;;5.56;61.23;101170.80;1750215;80;21370;-75
2021/11/23 09:52:05;;;;;;;7.15;5.37;;;;;;;5.55;60.92;101171.68;1750326;82;21346;-75
2021/11/23 09:54:32;;;;;;;7.45;4.72;;;;;;;5.52;61.07;101173.09;1750411;82;21651;-75
2021/11/23 09:56:59;;;;;;;5.80;5.03;;;;;;;5.51;60.88;101170.91;1750298;80;21155;-76
2021/11/23 09:59:27;;;;;;;7.17;4.80;;;;;;;5.50;60.41;101174.88;1750110;82;20884;-75
2021/11/23 10:01:57;;;;;;;6.72;4.00;;;;;;;5.50;60.26;101173.58;1750241;80;20951;-76
2021/11/23 10:04:26;;;;;;;5.15;3.30;;;;;;;5.48;59.90;101181.42;1750311;81;20976;-78
2021/11/23 10:06:59;;;;;;;5.37;3.30;;;;;;;5.49;59.72;101172.73;1750309;80;21413;-76
2021/11/23 10:09:40;;;;;;;4.90;4.00;;;;;;;5.51;58.94;101181.31;1747743;80;21144;-73
2021/11/23 10:12:24;;;;;;;4.92;2.85;;;;;;;5.49;59.03;101180.96;1749829;82;20948;-75
2021/11/23 10:15:16;;;;;;;3.80;2.42;;;;;;;5.46;58.40;101172.80;1750466;82;20880;-76
2021/11/23 10:17:47;;;;;;;3.40;2.40;;;;;;;5.50;57.90;101173.58;1750701;81;20931;-75
2021/11/23 10:20:37;;;;;;;4.95;2.58;;;;;;;5.51;57.75;101181.31;1750484;82;20936;-75
2021/11/23 10:23:17;;;;;;;4.25;3.10;;;;;;;5.56;57.74;101174.24;1753315;82;21438;-74
2021/11/23 10:25:47;;;;;;;7.00;3.42;;;;;;;5.59;57.43;101171.54;1750694;80;20904;-74
2021/11/23 10:28:14;;;;;;;4.70;2.85;;;;;;;5.62;57.27;101177.09;1750590;82;20920;-75
2021/11/23 10:30:45;;;;;;;2.98;2.67;;;;;;;5.57;56.87;101171.19;1750176;80;20881;-74
2021/11/23 10:33:13;;;;;;;4.10;2.50;;;;;;;5.55;56.82;101170.38;1750607;82;21335;-75
2021/11/23 10:35:40;;;;;;;3.92;2.20;;;;;;;5.55;56.57;101172.98;1750162;82;21815;-75
2021/11/23 10:38:09;;;;;;;2.90;1.95;;;;;;;5.56;56.78;101170.34;1750396;82;20869;-76
2021/11/23 10:40:38;;;;;;;2.55;1.80;;;;;;;5.61;56.66;101178.84;1750303;82;21444;-76
2021/11/23 10:43:12;;;;;;;2.02;1.90;;;;;;;5.64;56.14;101174.00;1750277;81;21427;-77
2021/11/23 10:45:43;;;;;;;2.60;2.40;;;;;;;5.58;55.67;101167.67;1750261;80;20885;-75
2021/11/23 10:48:11;;;;;;;2.50;2.27;;;;;;;5.49;55.87;101164.93;1750571;82;21071;-76
2021/11/23 10:50:39;;;;;;;2.05;1.90;;;;;;;5.44;56.33;101166.80;1750183;82;20881;-76
2021/11/23 10:53:12;;;;;;;2.92;2.17;;;;;;;5.40;56.78;101159.55;1750457;82;20877;-75
2021/11/23 10:55:41;;;;;;;2.87;1.75;;;;;;;5.33;56.76;101163.20;1750288;82;20932;-75
2021/11/23 10:58:11;;;;;;;2.45;1.98;;;;;;;5.23;56.51;101163.09;1750551;82;21046;-75
2021/11/23 11:00:42;;;;;;;2.95;2.22;;;;;;;5.14;56.85;101161.61;1750538;80;21075;-75
2021/11/23 11:03:10;;;;;;;3.22;2.30;;;;;;;5.10;56.98;101166.94;1750301;82;20853;-76
2021/11/23 11:05:40;;;;;;;3.22;2.17;;;;;;;5.03;57.30;101166.27;1750134;82;20869;-75
2021/11/23 11:08:07;;;;;;;2.67;1.85;;;;;;;4.97;57.38;101164.67;1750269;80;20936;-75
2021/11/23 11:10:37;;;;;;;2.98;2.08;;;;;;;4.95;57.05;101166.91;1750307;82;21410;-75
2021/11/23 11:13:10;;;;;;;3.27;1.70;;;;;;;4.95;57.07;101170.36;1750380;82;21106;-75
2021/11/23 11:15:44;;;;;;;2.70;2.00;;;;;;;4.95;56.85;101169.05;1750412;82;20956;-75
2021/11/23 11:18:13;;;;;;;;;;;;;;;4.94;56.80;101166.06;1752960;81;20940;-76
2021/11/23 11:20:47;;;;;;;2.10;1.67;;;;;;;4.94;56.95;101165.22;1750455;82;20300;-75
2021/11/23 11:23:28;;;;;;;1.65;1.52;;;;;;;4.93;56.98;101160.91;1741719;81;20941;-77
2021/11/23 11:26:19;;;;;;;3.62;1.20;;;;;;;4.94;56.76;101160.02;1736521;82;21161;-74
2021/11/23 11:28:58;;;;;;;1.72;1.40;;;;;;;4.90;56.07;101159.25;1736150;82;21351;-75
2021/11/23 11:31:46;;;;;;;1.57;1.45;;;;;;;4.90;55.96;101167.50;1736372;82;20968;-75
2021/11/23 11:34:31;;;;;;;2.83;1.50;;;;;;;4.91;55.55;101167.89;1736418;82;20893;-75
2021/11/23 11:37:18;;;;;;;3.12;1.35;;;;;;;4.90;55.12;101171.39;1736952;82;21308;-75
2021/11/23 11:39:53;;;;;;;3.40;2.72;;;;;;;4.82;54.93;101168.99;1736384;82;21099;-75
2021/11/23 11:42:26;;;;;;;3.33;1.35;;;;;;;4.76;54.93;101179.12;1736450;82;20964;-73